Time;durP1;ratioP1;P1;durP2;ratioP2;P2;SDS_P1;SDS_P2;PMS_P1;PMS_P2;Temp;Humidity;BMP_temperature;BMP_pressure;BME280_temperature;BME280_humidity;BME280_pressure;Samples;Min_cycle;Max_cycle;Signal;HPM_P1;HPM_P2
2023/11/04 00:00:56;;;;;;;2.15;0.88;;;8.50;99.90;;;;;;4975172;28;20456;-75
2023/11/04 00:03:21;;;;;;;2.30;0.60;;;8.50;99.90;;;;;;4992223;28;20069;-76
2023/11/04 00:05:47;;;;;;;1.55;0.60;;;8.40;99.90;;;;;;4978741;28;20038;-76
2023/11/04 00:08:16;;;;;;;1.70;0.40;;;8.50;99.90;;;;;;4984541;28;20113;-78
2023/11/04 00:10:42;;;;;;;1.45;0.52;;;8.50;99.90;;;;;;4990042;28;20524;-76
2023/11/04 00:13:08;;;;;;;2.85;0.47;;;8.50;99.90;;;;;;5006850;28;20053;-76
2023/11/04 00:15:33;;;;;;;1.10;0.40;;;8.60;99.90;;;;;;4982852;28;20112;-77
2023/11/04 00:17:59;;;;;;;1.55;0.47;;;8.50;99.90;;;;;;4980696;28;20909;-75
2023/11/04 00:20:27;;;;;;;0.95;0.50;;;8.50;99.90;;;;;;4994014;28;20080;-76
2023/11/04 00:22:53;;;;;;;1.17;0.55;;;8.50;99.90;;;;;;5000782;28;20407;-75
2023/11/04 00:25:19;;;;;;;3.15;0.60;;;8.60;99.90;;;;;;4998562;28;20031;-75
2023/11/04 00:27:45;;;;;;;1.33;0.68;;;8.60;99.90;;;;;;4977901;28;20033;-77
2023/11/04 00:30:13;;;;;;;2.15;0.93;;;8.60;99.90;;;;;;4980359;28;20817;-75
2023/11/04 00:32:38;;;;;;;1.45;0.50;;;8.60;99.90;;;;;;5000714;28;20506;-75
2023/11/04 00:35:04;;;;;;;3.28;0.50;;;8.70;99.90;;;;;;4997682;28;20050;-76
2023/11/04 00:37:30;;;;;;;2.05;0.98;;;8.70;99.90;;;;;;4999475;28;20415;-76
2023/11/04 00:39:56;;;;;;;1.73;0.70;;;8.70;99.90;;;;;;5000181;28;20064;-75
2023/11/04 00:42:22;;;;;;;3.92;0.77;;;8.70;99.90;;;;;;4999782;28;20042;-76
2023/11/04 00:44:48;;;;;;;3.78;0.70;;;8.80;99.90;;;;;;4997039;28;20041;-77
2023/11/04 00:47:13;;;;;;;3.30;0.65;;;8.80;99.90;;;;;;5005092;28;20034;-75
2023/11/04 00:49:39;;;;;;;1.13;0.55;;;8.80;99.90;;;;;;4993318;28;20031;-75
2023/11/04 00:52:05;;;;;;;1.60;0.68;;;8.80;99.90;;;;;;4971015;28;20038;-76
2023/11/04 00:54:30;;;;;;;4.20;0.88;;;8.90;99.90;;;;;;4993301;28;20034;-76
2023/11/04 00:56:56;;;;;;;8.20;1.05;;;8.80;99.90;;;;;;4978743;28;20038;-77
2023/11/04 00:59:21;;;;;;;1.88;0.70;;;8.90;99.90;;;;;;4973076;28;20033;-77
2023/11/04 01:01:47;;;;;;;6.00;1.23;;;9.00;99.90;;;;;;4995887;28;20037;-78
2023/11/04 01:04:13;;;;;;;5.93;0.90;;;8.90;99.90;;;;;;4979095;28;20032;-76
2023/11/04 01:06:39;;;;;;;3.08;0.75;;;8.90;99.90;;;;;;5000992;28;20038;-76
2023/11/04 01:09:05;;;;;;;4.50;1.10;;;9.00;99.90;;;;;;4990563;28;20033;-76
2023/11/04 01:11:31;;;;;;;3.40;1.00;;;9.00;99.90;;;;;;4983096;28;20081;-76
2023/11/04 01:13:57;;;;;;;2.78;0.93;;;9.00;99.90;;;;;;4983759;28;20364;-77
2023/11/04 01:16:23;;;;;;;2.88;0.88;;;9.00;99.90;;;;;;4998539;28;20034;-76
2023/11/04 01:18:49;;;;;;;3.88;0.60;;;9.00;99.90;;;;;;5003039;28;20033;-76
2023/11/04 01:21:16;;;;;;;6.43;0.93;;;9.00;99.90;;;;;;4978471;28;20479;-77
2023/11/04 01:23:42;;;;;;;2.45;1.10;;;9.10;99.90;;;;;;4988276;28;20034;-77
2023/11/04 01:26:07;;;;;;;2.45;0.90;;;9.10;99.90;;;;;;4974915;28;20560;-75
2023/11/04 01:28:33;;;;;;;6.22;0.98;;;9.10;99.90;;;;;;4982769;28;20084;-75
2023/11/04 01:30:59;;;;;;;4.10;0.73;;;9.10;99.90;;;;;;5001101;28;20045;-76
2023/11/04 01:33:26;;;;;;;1.25;0.65;;;9.10;99.90;;;;;;5004174;28;20037;-75
2023/11/04 01:35:52;;;;;;;2.38;1.00;;;9.20;99.90;;;;;;4999780;28;20037;-75
2023/11/04 01:38:18;;;;;;;3.20;1.02;;;9.20;99.90;;;;;;4998382;28;20038;-76
2023/11/04 01:40:51;;;;;;;5.35;1.10;;;9.20;99.90;;;;;;4979549;28;20030;-76
2023/11/04 01:43:23;;;;;;;2.53;0.95;;;9.20;99.90;;;;;;5007766;28;20038;-76
2023/11/04 01:46:11;;;;;;;1.90;0.82;;;9.20;99.90;;;;;;4993676;28;20062;-75
2023/11/04 01:48:41;;;;;;;2.00;0.95;;;9.20;99.90;;;;;;4997324;28;20037;-76
2023/11/04 01:51:08;;;;;;;5.78;1.20;;;9.20;99.90;;;;;;4999799;28;20415;-76
2023/11/04 01:53:35;;;;;;;2.47;0.98;;;9.20;99.90;;;;;;4997099;28;20620;-76
2023/11/04 01:56:03;;;;;;;2.03;1.33;;;9.30;99.90;;;;;;4979678;28;20083;-76
2023/11/04 01:58:31;;;;;;;3.92;1.10;;;9.20;99.90;;;;;;4983299;28;20033;-76
2023/11/04 02:00:58;;;;;;;3.88;1.48;;;9.30;99.90;;;;;;4997829;28;20038;-76
2023/11/04 02:03:24;;;;;;;3.15;1.50;;;9.30;99.90;;;;;;4978463;28;20085;-76
2023/11/04 02:05:49;;;;;;;3.17;1.48;;;9.30;99.90;;;;;;4982037;28;20591;-77
2023/11/04 02:08:15;;;;;;;7.28;1.77;;;9.20;99.90;;;;;;5005431;28;20042;-77
2023/11/04 02:10:40;;;;;;;3.60;1.30;;;9.30;99.90;;;;;;5003831;28;20080;-77
2023/11/04 02:13:06;;;;;;;3.08;1.08;;;9.30;99.90;;;;;;4998146;28;20061;-77
2023/11/04 02:15:32;;;;;;;3.70;1.30;;;9.30;99.90;;;;;;4975785;28;20023;-77
2023/11/04 02:17:58;;;;;;;3.72;1.60;;;9.30;99.90;;;;;;5006044;28;20053;-74
2023/11/04 02:20:25;;;;;;;3.42;1.10;;;9.30;99.90;;;;;;4984478;28;20555;-77
2023/11/04 02:22:51;;;;;;;2.13;0.98;;;9.30;99.90;;;;;;4977288;28;20038;-77
2023/11/04 02:25:17;;;;;;;5.68;1.15;;;9.30;99.90;;;;;;4981834;28;20038;-75
2023/11/04 02:27:43;;;;;;;4.93;1.10;;;9.40;99.90;;;;;;5005609;28;20053;-77
2023/11/04 02:30:11;;;;;;;4.38;1.27;;;9.30;99.90;;;;;;4999838;28;20033;-76
2023/11/04 02:32:38;;;;;;;3.33;1.15;;;9.40;99.90;;;;;;4979007;28;20057;-75
2023/11/04 02:35:04;;;;;;;6.20;1.20;;;9.40;99.90;;;;;;5002892;28;20511;-76
2023/11/04 02:37:30;;;;;;;3.42;1.35;;;9.40;99.90;;;;;;5003003;28;20034;-76
2023/11/04 02:39:56;;;;;;;4.38;1.48;;;9.40;99.90;;;;;;4998682;28;20049;-76
2023/11/04 02:42:21;;;;;;;4.18;1.45;;;9.40;99.90;;;;;;5007402;28;20025;-78
2023/11/04 02:44:47;;;;;;;7.13;2.00;;;9.40;99.90;;;;;;5000428;28;20048;-76
2023/11/04 02:47:12;;;;;;;1.92;1.10;;;9.40;99.90;;;;;;4995905;28;20401;-77
2023/11/04 02:49:38;;;;;;;5.10;1.33;;;9.40;99.90;;;;;;5004537;28;20380;-76
2023/11/04 02:52:04;;;;;;;5.80;1.85;;;9.40;99.90;;;;;;5001986;28;20042;-76
2023/11/04 02:54:29;;;;;;;4.00;1.63;;;9.40;99.90;;;;;;5003211;28;20038;-75
2023/11/04 02:56:55;;;;;;;3.55;1.15;;;9.40;99.90;;;;;;4998134;28;20116;-75
2023/11/04 02:59:21;;;;;;;4.40;1.33;;;9.40;99.90;;;;;;4982993;28;20526;-76
2023/11/04 03:01:46;;;;;;;3.90;1.65;;;9.40;99.90;;;;;;5002869;28;20550;-77
2023/11/04 03:04:12;;;;;;;5.78;1.70;;;9.40;99.90;;;;;;5002468;28;20069;-76
2023/11/04 03:06:39;;;;;;;2.40;1.48;;;9.40;99.90;;;;;;5002766;28;20038;-76
2023/11/04 03:09:04;;;;;;;7.20;1.90;;;9.40;99.90;;;;;;5002630;28;20066;-77
2023/11/04 03:11:30;;;;;;;2.60;1.13;;;9.40;99.90;;;;;;5007069;28;20053;-75
2023/11/04 03:13:55;;;;;;;6.97;1.65;;;9.40;99.90;;;;;;4998312;28;20057;-76
2023/11/04 03:16:21;;;;;;;2.72;1.10;;;9.40;99.90;;;;;;4983296;28;20042;-75
2023/11/04 03:18:47;;;;;;;2.90;1.27;;;9.40;99.90;;;;;;4982178;28;20029;-75
2023/11/04 03:21:13;;;;;;;4.97;1.20;;;9.40;99.90;;;;;;4983829;28;20022;-76
2023/11/04 03:23:39;;;;;;;2.83;1.35;;;9.40;99.90;;;;;;4998864;28;20161;-76
2023/11/04 03:26:07;;;;;;;4.50;2.10;;;9.40;99.90;;;;;;4999175;28;20125;-77
2023/11/04 03:28:34;;;;;;;3.22;1.38;;;9.40;99.90;;;;;;4985234;28;20109;-76
2023/11/04 03:31:01;;;;;;;5.90;1.60;;;9.40;99.90;;;;;;4992641;28;20487;-76
2023/11/04 03:33:26;;;;;;;2.55;1.05;;;9.30;99.90;;;;;;5002958;28;20570;-75
2023/11/04 03:35:54;;;;;;;2.92;1.30;;;9.30;99.90;;;;;;4978811;28;20041;-74
2023/11/04 03:38:19;;;;;;;4.70;1.27;;;9.30;99.90;;;;;;4978169;28;20026;-76
2023/11/04 03:40:45;;;;;;;3.42;1.20;;;9.30;99.90;;;;;;4999155;28;20623;-76
2023/11/04 03:43:10;;;;;;;4.57;1.23;;;9.40;99.90;;;;;;5000646;28;20444;-74
2023/11/04 03:45:36;;;;;;;4.95;1.88;;;9.30;99.90;;;;;;4995076;28;20034;-75
2023/11/04 03:48:01;;;;;;;5.40;1.48;;;9.40;99.90;;;;;;5001047;28;20121;-76
2023/11/04 03:50:27;;;;;;;2.75;0.95;;;9.30;99.90;;;;;;4984606;28;20066;-76
2023/11/04 03:52:53;;;;;;;3.88;1.20;;;9.30;99.90;;;;;;5001327;28;20026;-77
2023/11/04 03:55:18;;;;;;;2.60;1.33;;;9.30;99.90;;;;;;4982591;28;20068;-76
2023/11/04 03:57:44;;;;;;;10.88;2.45;;;9.30;99.90;;;;;;4977863;28;20488;-76
2023/11/04 04:00:10;;;;;;;5.97;1.50;;;9.30;99.90;;;;;;5006223;28;20037;-77
2023/11/04 04:02:36;;;;;;;3.88;1.23;;;9.30;99.90;;;;;;4984865;28;20038;-77
2023/11/04 04:05:01;;;;;;;4.35;1.13;;;9.30;99.90;;;;;;5001060;28;20027;-76
2023/11/04 04:07:27;;;;;;;4.43;1.33;;;9.30;99.90;;;;;;4988754;28;20213;-76
2023/11/04 04:09:53;;;;;;;2.60;1.20;;;9.40;99.90;;;;;;5000748;28;20065;-75
2023/11/04 04:12:19;;;;;;;5.03;1.63;;;9.40;99.90;;;;;;5003555;28;20660;-76
2023/11/04 04:14:45;;;;;;;1.38;0.82;;;9.40;99.90;;;;;;4996946;28;20129;-76
2023/11/04 04:17:10;;;;;;;3.22;1.33;;;9.40;99.90;;;;;;4998152;28;20487;-76
2023/11/04 04:19:39;;;;;;;4.38;1.08;;;9.40;99.90;;;;;;4985660;28;20092;-76
2023/11/04 04:22:05;;;;;;;3.03;1.38;;;9.40;99.90;;;;;;4996741;28;20507;-76
2023/11/04 04:24:30;;;;;;;4.47;1.30;;;9.40;99.90;;;;;;5003565;28;20031;-76
2023/11/04 04:26:56;;;;;;;2.22;1.00;;;9.50;99.90;;;;;;5003979;28;20072;-76
2023/11/04 04:29:24;;;;;;;4.50;1.20;;;9.40;99.90;;;;;;5005248;28;20038;-78
2023/11/04 04:31:54;;;;;;;2.85;1.17;;;9.40;99.90;;;;;;5003612;28;20121;-75
2023/11/04 04:34:21;;;;;;;4.45;1.50;;;9.50;99.90;;;;;;4997254;28;20044;-76
2023/11/04 04:36:47;;;;;;;3.88;1.90;;;9.50;99.90;;;;;;4982645;28;20041;-77
2023/11/04 04:39:12;;;;;;;2.47;1.23;;;9.50;99.90;;;;;;4995348;28;20034;-75
2023/11/04 04:41:38;;;;;;;6.18;1.52;;;9.50;99.90;;;;;;4980525;28;20038;-76
2023/11/04 04:44:04;;;;;;;5.00;1.73;;;9.40;99.90;;;;;;4997246;28;20117;-77
2023/11/04 04:46:30;;;;;;;3.97;1.35;;;9.40;99.90;;;;;;5005065;28;20030;-76
2023/11/04 04:48:56;;;;;;;6.95;2.58;;;9.50;99.90;;;;;;4996290;28;20030;-76
2023/11/04 04:51:21;;;;;;;2.38;1.45;;;9.40;99.90;;;;;;5002310;28;20033;-78
2023/11/04 04:53:47;;;;;;;6.20;2.00;;;9.50;99.90;;;;;;5000558;28;20034;-77
2023/11/04 04:56:16;;;;;;;7.60;2.20;;;9.40;99.90;;;;;;4999519;28;20042;-76
2023/11/04 04:58:41;;;;;;;3.65;1.58;;;9.50;99.90;;;;;;5004344;28;20396;-74
2023/11/04 05:01:16;;;;;;;2.90;1.88;;;9.50;99.90;;;;;;4995964;28;20037;-76
2023/11/04 05:03:41;;;;;;;4.50;2.10;;;9.50;99.90;;;;;;4998262;28;20503;-76
2023/11/04 05:06:07;;;;;;;5.05;1.85;;;9.60;99.90;;;;;;4999936;28;20048;-76
2023/11/04 05:08:32;;;;;;;6.53;2.63;;;9.60;99.90;;;;;;5005805;28;20495;-76
2023/11/04 05:10:58;;;;;;;5.75;1.77;;;9.50;99.90;;;;;;4992216;28;20512;-77
2023/11/04 05:13:24;;;;;;;3.08;1.80;;;9.50;99.90;;;;;;5001103;28;20034;-76
2023/11/04 05:15:50;;;;;;;5.15;2.10;;;9.50;99.90;;;;;;5000437;28;20381;-75
2023/11/04 05:18:17;;;;;;;3.85;1.75;;;9.50;99.90;;;;;;4975876;28;20458;-76
2023/11/04 05:20:43;;;;;;;3.95;1.55;;;9.50;99.90;;;;;;5005428;28;20052;-78
2023/11/04 05:23:08;;;;;;;3.88;1.77;;;9.50;99.90;;;;;;4981458;28;20113;-76
2023/11/04 05:25:34;;;;;;;5.50;2.22;;;9.50;99.90;;;;;;4995557;28;20028;-76
2023/11/04 05:27:59;;;;;;;6.35;2.35;;;9.50;99.90;;;;;;4996087;28;20038;-74
2023/11/04 05:30:25;;;;;;;6.50;2.33;;;9.50;99.90;;;;;;4979513;28;20042;-76
2023/11/04 05:32:51;;;;;;;4.28;1.92;;;9.50;99.90;;;;;;5000235;28;20034;-76
2023/11/04 05:35:17;;;;;;;3.10;2.05;;;9.50;99.90;;;;;;4995752;28;20042;-76
2023/11/04 05:37:43;;;;;;;5.28;1.70;;;9.50;99.90;;;;;;5002444;28;20053;-76
2023/11/04 05:40:10;;;;;;;9.18;2.40;;;9.40;99.90;;;;;;5002613;28;20030;-76
2023/11/04 05:42:35;;;;;;;8.13;1.98;;;9.30;99.90;;;;;;4998255;28;20097;-76
2023/11/04 05:45:01;;;;;;;6.35;2.85;;;9.30;99.90;;;;;;4998833;28;20372;-76
2023/11/04 05:47:26;;;;;;;8.88;2.97;;;9.30;99.90;;;;;;5000061;28;20026;-76
2023/11/04 05:49:52;;;;;;;5.90;1.60;;;9.20;99.90;;;;;;4978713;28;20038;-76
2023/11/04 05:52:18;;;;;;;4.93;1.85;;;9.20;99.90;;;;;;5000207;28;20169;-77
2023/11/04 05:54:43;;;;;;;4.45;2.30;;;9.20;99.90;;;;;;4979081;28;20104;-76
2023/11/04 05:57:09;;;;;;;4.75;1.70;;;9.20;99.90;;;;;;5002855;28;20130;-76
2023/11/04 05:59:35;;;;;;;4.72;2.25;;;9.20;99.90;;;;;;5004172;28;20049;-77
2023/11/04 06:02:01;;;;;;;4.95;1.90;;;9.20;99.90;;;;;;4998358;28;20026;-76
2023/11/04 06:04:27;;;;;;;4.03;1.98;;;9.10;99.90;;;;;;4996502;28;20046;-77
2023/11/04 06:06:53;;;;;;;6.97;2.63;;;9.10;99.90;;;;;;4996036;28;20076;-76
2023/11/04 06:09:18;;;;;;;8.75;1.48;;;9.20;99.90;;;;;;4982596;28;20041;-77
2023/11/04 06:11:44;;;;;;;4.90;1.27;;;9.20;99.90;;;;;;4989761;28;20042;-76
2023/11/04 06:14:09;;;;;;;6.72;1.45;;;9.10;99.90;;;;;;4998023;28;20034;-75
2023/11/04 06:16:35;;;;;;;9.38;2.15;;;9.10;99.90;;;;;;4978766;28;20034;-76
2023/11/04 06:19:01;;;;;;;5.10;1.63;;;9.10;99.90;;;;;;5000809;28;20034;-77
2023/11/04 06:21:28;;;;;;;6.28;1.50;;;9.10;99.90;;;;;;4999729;28;20444;-76
2023/11/04 06:23:53;;;;;;;9.13;1.40;;;9.10;99.90;;;;;;4990941;28;20038;-76
2023/11/04 06:26:23;;;;;;;9.73;1.05;;;9.10;99.90;;;;;;4979136;28;20030;-76
2023/11/04 06:28:49;;;;;;;12.38;1.33;;;9.20;99.90;;;;;;4999483;28;20046;-75
2023/11/04 06:31:15;;;;;;;2.83;0.90;;;9.20;99.90;;;;;;4975034;28;20121;-76
2023/11/04 06:33:41;;;;;;;6.10;1.42;;;9.30;99.90;;;;;;4989308;28;20581;-76
2023/11/04 06:36:07;;;;;;;4.82;1.30;;;9.30;99.90;;;;;;4994384;28;20034;-76
2023/11/04 06:38:32;;;;;;;5.05;1.52;;;9.30;99.90;;;;;;4996339;28;20065;-76
2023/11/04 06:40:58;;;;;;;3.78;0.95;;;9.30;99.90;;;;;;4999500;28;20483;-76
2023/11/04 06:43:27;;;;;;;3.17;1.02;;;9.40;99.90;;;;;;4992154;28;20125;-76
2023/11/04 06:45:53;;;;;;;5.85;1.00;;;9.30;99.90;;;;;;4980644;28;20038;-75
2023/11/04 06:48:19;;;;;;;3.50;1.08;;;9.40;99.90;;;;;;4999832;28;20030;-75
2023/11/04 06:50:45;;;;;;;4.72;1.88;;;9.40;99.90;;;;;;4980014;28;20026;-76
2023/11/04 06:53:10;;;;;;;6.28;1.42;;;9.40;99.90;;;;;;4997425;28;20031;-76
2023/11/04 06:55:36;;;;;;;6.60;2.25;;;9.40;99.90;;;;;;4995892;28;20448;-76
2023/11/04 06:58:02;;;;;;;9.77;2.40;;;9.50;99.90;;;;;;4998804;28;20049;-75
2023/11/04 07:00:27;;;;;;;6.72;1.20;;;9.50;99.90;;;;;;4999647;28;20664;-77
2023/11/04 07:02:53;;;;;;;6.60;0.90;;;9.50;99.90;;;;;;4994886;28;20023;-76
2023/11/04 07:05:18;;;;;;;6.65;2.45;;;9.50;99.90;;;;;;4978365;28;20038;-76
2023/11/04 07:07:44;;;;;;;2.88;1.10;;;9.50;99.90;;;;;;4984922;28;20041;-76
2023/11/04 07:10:09;;;;;;;6.53;0.95;;;9.60;99.90;;;;;;5007411;28;20034;-76
2023/11/04 07:12:35;;;;;;;6.82;1.20;;;9.60;99.90;;;;;;5001151;28;20045;-77
2023/11/04 07:15:05;;;;;;;6.32;1.10;;;9.60;99.90;;;;;;4977079;28;20118;-77
2023/11/04 07:17:31;;;;;;;8.52;0.90;;;9.60;99.90;;;;;;4983323;28;20045;-77
2023/11/04 07:19:57;;;;;;;6.15;1.00;;;9.60;99.90;;;;;;4986604;28;20031;-77
2023/11/04 07:22:23;;;;;;;6.38;1.20;;;9.60;99.90;;;;;;5003465;28;20030;-77
2023/11/04 07:24:49;;;;;;;6.40;1.30;;;9.60;99.90;;;;;;4996736;28;20524;-76
2023/11/04 07:27:15;;;;;;;6.75;0.80;;;9.60;99.90;;;;;;4999323;28;20069;-76
2023/11/04 07:29:41;;;;;;;6.10;1.25;;;9.60;99.90;;;;;;5001781;28;20038;-76
2023/11/04 07:32:07;;;;;;;7.85;1.65;;;9.70;99.90;;;;;;4988111;28;20034;-78
2023/11/04 07:34:33;;;;;;;7.03;1.00;;;9.60;99.90;;;;;;5000084;28;20035;-76
2023/11/04 07:37:00;;;;;;;4.93;2.15;;;9.60;99.90;;;;;;4990549;28;20061;-76
2023/11/04 07:39:29;;;;;;;10.75;2.85;;;9.70;99.90;;;;;;5000543;28;20523;-75
2023/11/04 07:41:55;;;;;;;10.00;1.15;;;9.70;99.90;;;;;;5004250;28;20044;-75
2023/11/04 07:44:21;;;;;;;6.15;0.77;;;9.70;99.90;;;;;;4978438;28;20416;-77
2023/11/04 07:46:46;;;;;;;10.23;1.83;;;9.70;99.90;;;;;;4991622;28;20515;-77
2023/11/04 07:49:12;;;;;;;8.20;1.15;;;9.70;99.90;;;;;;4982535;28;20030;-77
2023/11/04 07:51:38;;;;;;;4.53;0.63;;;9.70;99.90;;;;;;5001694;28;20495;-76
2023/11/04 07:54:05;;;;;;;6.35;1.33;;;9.80;99.90;;;;;;4999788;28;20053;-76
2023/11/04 07:56:30;;;;;;;5.03;0.77;;;9.70;99.90;;;;;;4998445;28;20046;-76
2023/11/04 07:58:56;;;;;;;2.17;0.68;;;9.70;99.90;;;;;;4994077;28;20026;-76
2023/11/04 08:01:21;;;;;;;6.80;1.02;;;9.80;99.90;;;;;;5000168;28;20045;-76
2023/11/04 08:03:47;;;;;;;4.88;1.25;;;9.80;99.90;;;;;;4991534;28;20038;-76
2023/11/04 08:06:12;;;;;;;5.78;0.73;;;9.90;99.90;;;;;;4992415;28;20488;-76
2023/11/04 08:08:39;;;;;;;6.72;0.77;;;9.90;99.90;;;;;;4995084;28;20132;-76
2023/11/04 08:11:05;;;;;;;4.75;1.27;;;9.90;99.90;;;;;;4993150;28;20034;-76
2023/11/04 08:13:30;;;;;;;6.32;0.88;;;10.00;99.90;;;;;;4997303;28;20026;-76
2023/11/04 08:15:56;;;;;;;3.30;1.08;;;10.10;99.90;;;;;;5007215;28;20108;-76
2023/11/04 08:18:23;;;;;;;5.25;0.90;;;10.00;99.90;;;;;;5002869;28;20038;-76
2023/11/04 08:20:48;;;;;;;12.45;1.98;;;10.10;99.90;;;;;;4973973;28;20395;-76
2023/11/04 08:23:14;;;;;;;5.72;1.10;;;10.10;99.90;;;;;;4991156;28;20041;-76
2023/11/04 08:25:40;;;;;;;2.70;0.73;;;10.10;99.90;;;;;;5002885;28;20045;-76
2023/11/04 08:28:06;;;;;;;9.45;1.23;;;10.00;99.90;;;;;;4979675;28;20034;-76
2023/11/04 08:30:31;;;;;;;3.63;0.70;;;9.90;99.90;;;;;;5000500;28;20048;-77
2023/11/04 08:32:57;;;;;;;4.65;0.95;;;9.90;99.90;;;;;;5000562;28;20038;-76
2023/11/04 08:35:22;;;;;;;5.70;0.70;;;9.90;99.90;;;;;;5004462;28;20037;-76
2023/11/04 08:37:48;;;;;;;3.63;0.80;;;9.90;99.90;;;;;;4989996;28;20561;-76
2023/11/04 08:40:14;;;;;;;4.75;0.60;;;9.80;99.90;;;;;;4990297;28;20472;-76
2023/11/04 08:42:40;;;;;;;5.80;0.85;;;9.80;99.90;;;;;;5003394;28;20042;-77
2023/11/04 08:45:11;;;;;;;5.65;0.80;;;9.80;99.90;;;;;;4996079;28;20042;-75
2023/11/04 08:47:36;;;;;;;2.72;0.60;;;9.80;99.90;;;;;;4981936;28;20034;-76
2023/11/04 08:50:03;;;;;;;3.88;1.15;;;9.90;99.90;;;;;;4977397;28;20042;-76
2023/11/04 08:52:28;;;;;;;6.68;0.98;;;9.90;99.90;;;;;;4974380;28;20125;-76
2023/11/04 08:54:54;;;;;;;8.27;1.17;;;9.90;99.90;;;;;;4990470;28;20125;-75
2023/11/04 08:57:20;;;;;;;6.68;1.52;;;9.90;99.90;;;;;;4991694;28;20526;-76
2023/11/04 08:59:46;;;;;;;1.88;0.60;;;9.90;99.90;;;;;;4995328;28;20038;-76
2023/11/04 09:02:12;;;;;;;4.75;0.98;;;10.00;99.90;;;;;;4981703;28;20052;-75
2023/11/04 09:04:37;;;;;;;3.72;0.90;;;10.10;99.90;;;;;;4976075;28;20034;-76
2023/11/04 09:07:03;;;;;;;9.75;0.70;;;10.10;99.90;;;;;;4995665;28;20768;-76
2023/11/04 09:09:29;;;;;;;2.65;0.90;;;10.10;99.90;;;;;;4983966;28;20118;-76
2023/11/04 09:11:55;;;;;;;5.20;1.02;;;10.10;99.90;;;;;;4978593;28;20030;-76
2023/11/04 09:14:22;;;;;;;8.13;1.23;;;10.20;99.90;;;;;;4996301;28;20026;-77
2023/11/04 09:16:49;;;;;;;2.97;0.68;;;10.20;99.90;;;;;;4995736;28;20112;-75
2023/11/04 09:19:15;;;;;;;4.53;0.82;;;10.30;99.90;;;;;;5000250;28;20510;-76
2023/11/04 09:21:40;;;;;;;5.18;0.98;;;10.30;99.90;;;;;;4995327;28;20117;-75
2023/11/04 09:24:06;;;;;;;7.45;0.50;;;10.40;99.90;;;;;;4999663;28;20030;-75
2023/11/04 09:26:32;;;;;;;5.50;1.00;;;10.50;99.90;;;;;;4993790;28;20035;-76
2023/11/04 09:28:58;;;;;;;2.53;0.50;;;10.60;99.90;;;;;;5004301;28;20049;-75
2023/11/04 09:31:23;;;;;;;6.93;0.65;;;10.70;99.90;;;;;;4980633;28;20030;-75
2023/11/04 09:33:49;;;;;;;3.95;0.75;;;10.80;99.90;;;;;;4997738;28;20507;-76
2023/11/04 09:36:15;;;;;;;3.58;0.95;;;10.90;99.90;;;;;;4996392;28;20772;-76
2023/11/04 09:38:40;;;;;;;3.30;0.60;;;10.90;99.90;;;;;;4999684;28;20192;-76
2023/11/04 09:41:06;;;;;;;1.25;0.60;;;10.90;99.90;;;;;;4999128;28;20034;-75
2023/11/04 09:43:32;;;;;;;11.88;1.35;;;10.90;99.90;;;;;;4988144;28;20076;-76
2023/11/04 09:45:58;;;;;;;3.92;0.80;;;10.90;99.90;;;;;;4999990;28;20142;-77
2023/11/04 09:48:23;;;;;;;8.55;1.33;;;10.90;99.90;;;;;;4994712;28;20563;-75
2023/11/04 09:50:54;;;;;;;2.53;0.40;;;10.90;99.90;;;;;;5004003;28;20041;-75
2023/11/04 09:53:27;;;;;;;5.00;0.90;;;10.90;99.90;;;;;;4994188;28;20492;-76
2023/11/04 09:55:54;;;;;;;4.28;0.52;;;10.90;99.90;;;;;;4995262;28;20041;-76
2023/11/04 09:58:20;;;;;;;4.43;0.30;;;10.90;99.90;;;;;;4998744;28;20040;-75
2023/11/04 10:00:46;;;;;;;4.60;0.70;;;10.90;99.90;;;;;;4998812;28;20039;-75
2023/11/04 10:03:13;;;;;;;6.50;0.70;;;10.90;99.90;;;;;;4998229;28;20041;-77
2023/11/04 10:05:39;;;;;;;1.90;0.40;;;10.90;99.90;;;;;;4994761;28;20038;-74
2023/11/04 10:08:05;;;;;;;1.75;0.50;;;10.90;99.90;;;;;;4997133;28;20038;-75
2023/11/04 10:10:30;;;;;;;1.92;0.70;;;10.90;99.90;;;;;;4998012;28;20517;-76
2023/11/04 10:12:56;;;;;;;4.95;0.65;;;10.90;99.90;;;;;;4994865;28;20084;-75
2023/11/04 10:15:23;;;;;;;7.03;0.88;;;11.00;99.90;;;;;;4997931;28;20029;-76
2023/11/04 10:17:48;;;;;;;4.63;1.00;;;11.10;99.90;;;;;;4995504;28;20092;-76
2023/11/04 10:20:15;;;;;;;2.13;0.52;;;11.10;99.90;;;;;;4998799;28;20042;-76
2023/11/04 10:22:41;;;;;;;4.47;0.40;;;11.20;99.90;;;;;;4978953;28;20038;-75
2023/11/04 10:25:07;;;;;;;2.35;0.50;;;11.10;99.90;;;;;;4998101;28;20479;-76
2023/11/04 10:27:34;;;;;;;1.95;0.30;;;11.10;99.90;;;;;;4998689;28;20506;-76
2023/11/04 10:30:00;;;;;;;2.50;0.38;;;11.10;99.90;;;;;;4980182;28;20042;-76
2023/11/04 10:32:33;;;;;;;3.53;0.63;;;11.10;99.90;;;;;;5000089;28;20632;-76
2023/11/04 10:35:04;;;;;;;5.78;0.85;;;11.00;99.90;;;;;;4983521;28;20062;-76
2023/11/04 10:37:33;;;;;;;2.08;0.45;;;11.00;99.90;;;;;;5001397;28;20052;-75
2023/11/04 10:40:05;;;;;;;3.08;0.40;;;11.00;99.90;;;;;;4998019;28;20030;-76
2023/11/04 10:42:32;;;;;;;2.10;0.60;;;11.00;99.90;;;;;;4997574;28;20031;-75
2023/11/04 10:45:02;;;;;;;6.30;0.50;;;11.00;99.90;;;;;;4996833;28;20038;-76
2023/11/04 10:47:41;;;;;;;2.33;0.47;;;10.90;99.90;;;;;;4980245;28;20132;-75
2023/11/04 10:50:19;;;;;;;1.75;0.32;;;10.90;99.90;;;;;;5000999;28;20446;-75
2023/11/04 10:52:54;;;;;;;7.97;1.67;;;10.80;99.90;;;;;;4996071;28;20038;-75
2023/11/04 10:55:25;;;;;;;4.38;0.50;;;10.90;99.90;;;;;;4993972;28;20045;-75
2023/11/04 10:58:05;;;;;;;9.43;1.05;;;10.80;99.90;;;;;;4997324;28;20117;-76
2023/11/04 11:00:34;;;;;;;2.40;0.60;;;10.80;99.90;;;;;;5001753;28;20073;-76
2023/11/04 11:03:01;;;;;;;3.22;0.90;;;10.80;99.90;;;;;;4979681;28;20041;-76
2023/11/04 11:05:28;;;;;;;1.98;0.30;;;10.80;99.90;;;;;;4998327;28;20054;-76
2023/11/04 11:07:55;;;;;;;1.73;0.30;;;10.80;99.90;;;;;;4996278;28;20113;-76
2023/11/04 11:10:28;;;;;;;3.42;0.50;;;10.80;99.90;;;;;;5014543;28;20438;-77
2023/11/04 11:13:19;;;;;;;3.75;0.70;;;10.80;99.90;;;;;;5003554;28;20069;-75
2023/11/04 11:15:46;;;;;;;2.70;0.75;;;10.70;99.90;;;;;;5001047;28;20120;-76
2023/11/04 11:18:12;;;;;;;4.85;0.90;;;10.70;99.90;;;;;;4998067;28;20041;-76
2023/11/04 11:20:37;;;;;;;8.55;0.82;;;10.60;99.90;;;;;;4998274;28;20101;-75
2023/11/04 11:23:05;;;;;;;9.77;1.05;;;10.60;99.90;;;;;;4979468;28;20696;-77
2023/11/04 11:25:33;;;;;;;1.58;0.40;;;10.50;99.90;;;;;;4998253;28;20173;-76
2023/11/04 11:28:14;;;;;;;5.95;0.55;;;10.50;99.90;;;;;;5004278;28;20049;-75
2023/11/04 11:30:42;;;;;;;3.65;0.45;;;10.50;99.90;;;;;;4980672;28;20048;-77
2023/11/04 11:33:08;;;;;;;3.15;0.30;;;10.40;99.90;;;;;;5005143;28;20130;-76
2023/11/04 11:35:54;;;;;;;1.67;0.20;;;10.30;99.90;;;;;;5000331;28;20098;-77
2023/11/04 11:38:20;;;;;;;2.30;0.57;;;10.20;99.90;;;;;;4997377;28;20044;-77
2023/11/04 11:40:46;;;;;;;3.67;0.85;;;10.20;99.90;;;;;;4997686;28;20407;-77
2023/11/04 11:43:12;;;;;;;2.28;0.40;;;10.10;99.90;;;;;;4999869;28;20117;-76
2023/11/04 11:45:39;;;;;;;9.88;0.40;;;10.00;99.90;;;;;;4997770;28;20122;-76
2023/11/04 11:48:05;;;;;;;2.08;0.50;;;9.80;99.90;;;;;;4997012;28;20106;-76
2023/11/04 11:50:30;;;;;;;2.95;0.30;;;9.70;99.90;;;;;;4984062;28;20465;-76
2023/11/04 11:52:57;;;;;;;3.58;0.40;;;9.70;99.90;;;;;;4981831;28;20104;-75
2023/11/04 11:55:22;;;;;;;4.10;0.43;;;9.60;99.90;;;;;;4999602;28;20053;-76
2023/11/04 11:57:51;;;;;;;4.63;0.40;;;9.50;99.90;;;;;;5010549;28;20503;-76
2023/11/04 12:00:17;;;;;;;6.30;0.60;;;9.40;99.90;;;;;;5009266;28;20479;-75
2023/11/04 12:02:43;;;;;;;3.33;0.38;;;9.40;99.90;;;;;;5004418;28;20100;-77
2023/11/04 12:05:09;;;;;;;3.13;0.65;;;9.40;99.90;;;;;;5003432;28;20058;-75
2023/11/04 12:07:35;;;;;;;2.80;0.68;;;9.50;99.90;;;;;;5008143;28;20034;-77
2023/11/04 12:10:01;;;;;;;3.60;0.95;;;9.50;99.90;;;;;;4985499;28;20142;-77
2023/11/04 12:12:27;;;;;;;6.13;1.10;;;9.50;99.90;;;;;;4996970;28;20455;-75
2023/11/04 12:15:01;;;;;;;6.53;0.47;;;9.50;99.90;;;;;;4987612;28;20035;-76
2023/11/04 12:17:27;;;;;;;2.63;0.32;;;9.50;99.90;;;;;;4985908;28;20064;-76
2023/11/04 12:19:52;;;;;;;4.30;0.28;;;9.50;99.90;;;;;;4979877;28;20460;-76
2023/11/04 12:22:18;;;;;;;1.48;0.40;;;9.40;99.90;;;;;;5004489;28;20030;-76
2023/11/04 12:24:44;;;;;;;4.35;0.82;;;9.40;99.90;;;;;;5006263;28;20038;-77
2023/11/04 12:27:10;;;;;;;3.45;0.30;;;9.40;99.90;;;;;;4990392;28;20041;-75
2023/11/04 12:29:38;;;;;;;2.65;0.32;;;9.30;99.90;;;;;;4980922;28;20051;-77
2023/11/04 12:32:04;;;;;;;2.35;0.30;;;9.30;99.90;;;;;;4987654;28;20034;-76
2023/11/04 12:34:29;;;;;;;2.50;0.20;;;9.20;99.90;;;;;;5000178;28;20512;-75
2023/11/04 12:36:55;;;;;;;5.88;1.15;;;9.20;99.90;;;;;;4970159;28;20046;-76
2023/11/04 12:39:21;;;;;;;3.17;0.30;;;9.20;99.90;;;;;;4973466;28;20035;-76
2023/11/04 12:41:47;;;;;;;1.75;0.40;;;9.20;99.90;;;;;;5002866;28;20121;-76
2023/11/04 12:44:13;;;;;;;0.90;0.57;;;9.10;99.90;;;;;;5007517;28;20141;-75
2023/11/04 12:46:39;;;;;;;6.40;0.57;;;9.10;99.90;;;;;;5003067;28;20101;-76
2023/11/04 12:49:05;;;;;;;1.35;0.22;;;9.20;99.90;;;;;;4998346;28;20053;-75
2023/11/04 12:51:30;;;;;;;2.50;0.28;;;9.20;99.90;;;;;;5002002;28;20062;-75